WetterOnline ( https://www.wetteronline.de )

Wetter aktuell Heigenbrücken

Aktuelles Wetter: Neuhütten/Spessart (340m)

6-stündlich | Neueste Meldungen
Ortszeit Temperatur Wetter
Mi, 28.09. 14:00 9.5° C bedeckt
Mi, 28.09. 8:00 6.9° C bewölkt
Mi, 28.09. 2:00 6.9° C Sprühregen
Di, 27.09. 20:00 7.6° C leichter Regen
Di, 27.09. 14:00 10.1° C wolkig
Di, 27.09. 8:00 7.8° C Regen
Di, 27.09. 2:00 9.1° C leichter Regen
Mo, 26.09. 20:00 10.5° C wolkig
Ortszeit Temperatur Wetter
Mi, 28.09. 17:10 10.2° C bewölkt
Mi, 28.09. 17:00 10.3° C bewölkt
Mi, 28.09. 16:50 10.3° C bewölkt
Mi, 28.09. 16:40 10.3° C bedeckt
Mi, 28.09. 16:30 10.5° C bedeckt
Mi, 28.09. 16:20 10.5° C bedeckt
Mi, 28.09. 16:00 10.7° C bedeckt
Mi, 28.09. 15:30 10.3° C bedeckt
Mi, 28.09. 15:00 10.4° C bedeckt
Mi, 28.09. 14:30 10.0° C bewölkt
Ortszeit Relative Feuchte Sichtweite
Mi, 28.09. 14:00 77% >70 km
Mi, 28.09. 8:00 95% 50 km
Mi, 28.09. 2:00 92% 35 km
Di, 27.09. 20:00 91% 20 km
Di, 27.09. 14:00 82% >70 km
Di, 27.09. 8:00 95% 11 km
Di, 27.09. 2:00 92% 16 km
Mo, 26.09. 20:00 84% 60 km
Ortszeit Relative Feuchte Sichtweite
Mi, 28.09. 17:10 69% -
Mi, 28.09. 17:00 67% 65 km
Mi, 28.09. 16:50 67% -
Mi, 28.09. 16:40 66% -
Mi, 28.09. 16:30 64% 65 km
Mi, 28.09. 16:20 64% -
Mi, 28.09. 16:00 71% 55 km
Mi, 28.09. 15:30 67% 50 km
Mi, 28.09. 15:00 68% >70 km
Mi, 28.09. 14:30 76% 60 km
Ortszeit Niederschlagsmenge Niederschlagsart
Mi, 28.09. 14:00 0.0 l/m2 in 6 Std. -
Mi, 28.09. 8:00 7 l/m2 in 12 Std. Regen
Mi, 28.09. 2:00 0.7 l/m2 in 6 Std. Regen
Di, 27.09. 20:00 8 l/m2 in 12 Std. Regen
Di, 27.09. 14:00 3 l/m2 in 6 Std. Regen
Di, 27.09. 8:00 13 l/m2 in 12 Std. Regen
Di, 27.09. 2:00 7 l/m2 in 6 Std. Regen
Mo, 26.09. 20:00 0.4 l/m2 in 12 Std. Regen
Ortszeit Niederschlagsmenge Niederschlagsart
Mi, 28.09. 17:10 keine Meldung -
Mi, 28.09. 17:00 0.0 l/m2 in 1 Std. -
Mi, 28.09. 16:50 keine Meldung -
Mi, 28.09. 16:40 keine Meldung -
Mi, 28.09. 16:30 0.0 l/m2 in 1 Std. -
Mi, 28.09. 16:20 keine Meldung -
Mi, 28.09. 16:00 0.0 l/m2 in 1 Std. -
Mi, 28.09. 15:30 0.0 l/m2 in 1 Std. -
Mi, 28.09. 15:00 0.0 l/m2 in 1 Std. -
Mi, 28.09. 14:30 0.0 l/m2 in 1 Std. -
Ortszeit Stärke Spitze Richtung
km/h Bft. km/h Grad Sektor
Mi, 28.09. 14:00 7 2 29 270° W
Mi, 28.09. 8:00 11 2 36 270° W
Mi, 28.09. 2:00 9 2 39 210° SW
Di, 27.09. 20:00 9 2 46 260° W
Di, 27.09. 14:00 17 3 50 230° SW
Di, 27.09. 8:00 18 3 50 270° W
Di, 27.09. 2:00 24 4 44 240° SW
Mo, 26.09. 20:00 19 3 41 220° SW
Ortszeit Stärke Spitze Richtung
km/h Bft. km/h Grad Sektor
Mi, 28.09. 17:10 11 2 - 260° W
Mi, 28.09. 17:00 11 2 32 270° W
Mi, 28.09. 16:50 11 2 - 270° W
Mi, 28.09. 16:40 14 3 - 260° W
Mi, 28.09. 16:30 11 2 25 270° W
Mi, 28.09. 16:20 11 2 - 270° W
Mi, 28.09. 16:00 15 3 28 250° W
Mi, 28.09. 15:30 11 2 20 260° W
Mi, 28.09. 15:00 7 2 22 270° W
Mi, 28.09. 14:30 9 2 20 270° W
Ortszeit Untergrenze Bedeckung Gattung
total tief tief mittel hoch
Mi, 28.09. 14:00 1170 m 8/8 8/8 - - -
Mi, 28.09. 8:00 240 m 7/8 7/8 - - -
Mi, 28.09. 2:00 300 m 8/8 8/8 - - -
Di, 27.09. 20:00 570 m 7/8 7/8 - - -
Di, 27.09. 14:00 600 m 8/8 3/8 - - -
Di, 27.09. 8:00 240 m 7/8 7/8 - - -
Di, 27.09. 2:00 390 m 8/8 8/8 - - -
Mo, 26.09. 20:00 1800 m 8/8 3/8 - - -
Ortszeit Bedeckungsgrad in Achtel und Wolkenuntergrenze
Mi, 28.09. 17:10 7
Mi, 28.09. 17:00 1(1200m) 7(1500m)
Mi, 28.09. 16:50 1(1200m) 7(1500m)
Mi, 28.09. 16:40 8
Mi, 28.09. 16:30 2(900m) 8(1500m)
Mi, 28.09. 16:20 2(900m) 8(1500m)
Mi, 28.09. 16:00 4(1410m) 8(1500m)
Mi, 28.09. 15:30 8(1500m)
Mi, 28.09. 15:00 1(660m) 3(900m) 8(1500m)
Mi, 28.09. 14:30 4(1110m) 7(1500m)
Ortszeit Luftdruck NN (hPa) Tendenz (hPa in 3 Std.)
Mi, 28.09. 14:00 999 + 0,9
Mi, 28.09. 8:00 996 + 0,2
Mi, 28.09. 2:00 999 - 2,1
Di, 27.09. 20:00 1001 + 0,7
Di, 27.09. 14:00 1000 0,0
Di, 27.09. 8:00 998 + 1,5
Di, 27.09. 2:00 998 - 2,8
Mo, 26.09. 20:00 1002 - 2,1
Ortszeit Luftdruck NN (hPa) Tendenz (hPa in 3 Std.)
Mi, 28.09. 17:10 999 keine Meldung
Mi, 28.09. 17:00 999 + 0,2
Mi, 28.09. 16:50 999 keine Meldung
Mi, 28.09. 16:40 999 keine Meldung
Mi, 28.09. 16:30 999 + 0,1
Mi, 28.09. 16:20 999 keine Meldung
Mi, 28.09. 16:00 999 + 0,2
Mi, 28.09. 15:30 999 + 0,4
Mi, 28.09. 15:00 999 + 0,5
Mi, 28.09. 14:30 999 + 0,7
Ortszeit Schneehöhe (cm)
Mi, 28.09. 14:00 0
Mi, 28.09. 8:00 0
Mi, 28.09. 2:00 0
Di, 27.09. 20:00 0
Di, 27.09. 14:00 0
Di, 27.09. 8:00 0
Di, 27.09. 2:00 0
Mo, 26.09. 20:00 0
Ortszeit Schneehöhe (cm)
Mi, 28.09. 17:10 0
Mi, 28.09. 17:00 0
Mi, 28.09. 16:50 0
Mi, 28.09. 16:40 0
Mi, 28.09. 16:30 0
Mi, 28.09. 16:20 0
Mi, 28.09. 16:00 0
Mi, 28.09. 15:30 0
Mi, 28.09. 15:00 0
Mi, 28.09. 14:30 0
Link zu dieser Seite / Seite empfehlen

Das Wetter in ...